createdAt,value
2022-11-13T00:02:27.917Z,100.00
2022-11-13T00:05:14.154Z,100.00
2022-11-13T00:07:59.890Z,100.00
2022-11-13T00:10:45.806Z,100.00
2022-11-13T00:13:32.038Z,99.82
2022-11-13T00:16:20.502Z,99.06
2022-11-13T00:19:06.708Z,92.40
2022-11-13T00:21:52.877Z,95.04
2022-11-13T00:24:38.902Z,81.46
2022-11-13T00:27:27.472Z,77.91
2022-11-13T00:30:19.031Z,68.56
2022-11-13T00:33:05.808Z,70.86
2022-11-13T00:35:51.790Z,69.05
2022-11-13T00:38:37.684Z,64.92
2022-11-13T00:41:24.212Z,67.75
2022-11-13T00:44:10.245Z,61.44
2022-11-13T00:46:55.955Z,58.91
2022-11-13T00:49:41.780Z,56.15
2022-11-13T00:52:27.846Z,53.98
2022-11-13T00:55:16.119Z,53.22
2022-11-13T00:58:02.716Z,51.41
2022-11-13T01:00:49.210Z,50.88
2022-11-13T01:03:36.975Z,50.35
2022-11-13T01:06:25.580Z,51.05
2022-11-13T01:09:11.865Z,50.77
2022-11-13T01:11:57.903Z,50.37
2022-11-13T01:14:44.079Z,50.44
2022-11-13T01:17:31.006Z,51.88
2022-11-13T01:20:17.692Z,51.04
2022-11-13T01:23:03.928Z,51.86
2022-11-13T01:25:50.348Z,51.39
2022-11-13T01:28:36.994Z,51.08
2022-11-13T01:31:26.902Z,51.30
2022-11-13T01:34:12.971Z,51.05
2022-11-13T01:36:59.056Z,51.52
2022-11-13T01:39:44.732Z,51.23
2022-11-13T01:42:33.550Z,50.21
2022-11-13T01:46:05.029Z,50.00
2022-11-13T01:49:08.169Z,51.71
2022-11-13T01:52:03.238Z,51.91
2022-11-13T01:54:53.600Z,52.40
2022-11-13T01:57:41.077Z,51.69
2022-11-13T02:00:27.136Z,52.41
2022-11-13T02:03:13.100Z,52.18
2022-11-13T02:05:59.046Z,52.43
2022-11-13T02:08:45.614Z,51.58
2022-11-13T02:11:31.591Z,50.97
2022-11-13T02:14:19.429Z,50.74
2022-11-13T02:21:15.114Z,50.15
2022-11-13T02:24:32.999Z,49.63
2022-11-13T02:27:38.042Z,49.26
2022-11-13T02:30:30.018Z,49.13
2022-11-13T02:33:33.888Z,49.13
2022-11-13T02:36:24.165Z,49.39
2022-11-13T02:39:12.827Z,49.56
2022-11-13T02:41:59.400Z,48.89
2022-11-13T02:44:45.355Z,49.14
2022-11-13T02:47:31.595Z,48.93
2022-11-13T02:50:18.396Z,48.43
2022-11-13T02:53:05.605Z,48.75
2022-11-13T02:55:51.351Z,48.24
2022-11-13T02:58:37.103Z,47.43
2022-11-13T03:01:22.837Z,47.74
2022-11-13T03:04:09.498Z,47.59
2022-11-13T03:06:55.871Z,48.28
2022-11-13T03:09:42.476Z,48.30
2022-11-13T03:12:28.352Z,48.66
2022-11-13T03:15:14.149Z,49.05
2022-11-13T03:18:04.312Z,49.28
2022-11-13T03:20:53.968Z,48.65
2022-11-13T03:23:41.801Z,47.33
2022-11-13T03:26:28.413Z,47.10
2022-11-13T03:29:15.399Z,46.59
2022-11-13T03:32:03.136Z,47.24
2022-11-13T03:34:48.945Z,47.76
2022-11-13T03:37:34.800Z,47.62
2022-11-13T03:40:20.460Z,47.24
2022-11-13T03:43:06.169Z,47.43
2022-11-13T03:45:52.039Z,47.84
2022-11-13T03:48:37.802Z,47.95
2022-11-13T03:51:23.774Z,48.26
2022-11-13T03:54:09.728Z,48.70
2022-11-13T03:56:55.904Z,48.92
2022-11-13T03:59:41.824Z,49.59
2022-11-13T04:02:27.750Z,49.89
2022-11-13T04:05:14.792Z,49.70
2022-11-13T04:08:03.866Z,50.43
2022-11-13T04:10:49.566Z,50.00
2022-11-13T04:13:35.273Z,50.54
2022-11-13T04:16:20.997Z,50.05
2022-11-13T04:19:06.577Z,49.82
2022-11-13T04:21:52.614Z,50.30
2022-11-13T04:24:41.637Z,50.92
2022-11-13T04:27:27.558Z,51.29
2022-11-13T04:30:13.381Z,52.24
2022-11-13T04:32:59.282Z,53.62
2022-11-13T04:35:45.983Z,54.27
2022-11-13T04:38:31.973Z,54.34
2022-11-13T04:41:36.196Z,53.89
2022-11-13T04:44:22.065Z,54.79
2022-11-13T04:47:08.591Z,56.33
2022-11-13T04:49:54.504Z,56.60
2022-11-13T04:52:40.353Z,56.62
2022-11-13T04:55:26.142Z,57.33
2022-11-13T04:58:12.131Z,57.79
2022-11-13T05:00:57.868Z,57.93
2022-11-13T05:03:43.575Z,58.51
2022-11-13T05:06:29.595Z,58.86
2022-11-13T05:09:16.211Z,60.25
2022-11-13T05:12:02.424Z,58.48
2022-11-13T05:14:48.253Z,57.81
2022-11-13T05:20:39.239Z,59.16
2022-11-13T05:23:29.947Z,59.33
2022-11-13T05:26:16.877Z,59.15
2022-11-13T05:29:02.829Z,60.24
2022-11-13T05:31:48.965Z,60.30
2022-11-13T05:34:34.813Z,60.46
2022-11-13T05:37:20.757Z,57.64
2022-11-13T05:40:07.547Z,57.33
2022-11-13T05:42:54.648Z,55.88
2022-11-13T05:45:40.500Z,55.72
2022-11-13T05:48:26.808Z,55.25
2022-11-13T05:51:15.588Z,55.03
2022-11-13T05:54:02.013Z,55.67
2022-11-13T05:56:50.611Z,55.74
2022-11-13T05:59:36.498Z,57.69
2022-11-13T06:02:22.519Z,57.28
2022-11-13T06:05:08.640Z,56.46
2022-11-13T06:07:54.488Z,56.60
2022-11-13T06:10:40.158Z,56.29
2022-11-13T06:13:25.926Z,56.30
2022-11-13T06:16:17.307Z,55.60
2022-11-13T06:19:04.899Z,55.54
2022-11-13T06:21:50.660Z,56.28
2022-11-13T06:24:36.272Z,55.41
2022-11-13T06:27:22.142Z,56.15
2022-11-13T06:30:08.341Z,56.43
2022-11-13T06:32:54.643Z,55.74
2022-11-13T06:35:40.748Z,55.85
2022-11-13T06:38:26.575Z,56.64
2022-11-13T06:41:16.170Z,56.88
2022-11-13T06:44:03.363Z,56.31
2022-11-13T06:46:49.598Z,57.14
2022-11-13T06:49:35.550Z,56.71
2022-11-13T06:52:21.637Z,57.50
2022-11-13T06:55:07.395Z,56.85
2022-11-13T06:57:54.648Z,56.44
2022-11-13T07:00:42.095Z,56.75
2022-11-13T07:03:28.081Z,56.97
2022-11-13T07:06:18.003Z,57.40
2022-11-13T07:09:04.001Z,57.48
2022-11-13T07:11:49.673Z,56.84
2022-11-13T07:14:35.292Z,56.93
2022-11-13T07:17:20.981Z,56.34
2022-11-13T07:20:08.552Z,56.43
2022-11-13T07:22:58.725Z,56.42
2022-11-13T07:25:44.709Z,56.59
2022-11-13T07:28:30.997Z,56.74
2022-11-13T07:31:18.306Z,56.62
2022-11-13T07:34:04.108Z,56.35
2022-11-13T07:36:50.055Z,55.99
2022-11-13T07:39:35.631Z,56.13
2022-11-13T07:42:21.512Z,55.29
2022-11-13T07:45:07.513Z,55.31
2022-11-13T07:47:58.501Z,55.58
2022-11-13T07:50:44.481Z,55.07
2022-11-13T07:53:30.437Z,54.53
2022-11-13T07:56:21.766Z,54.90
2022-11-13T07:59:08.827Z,55.52
2022-11-13T08:01:54.745Z,55.07
2022-11-13T08:04:40.560Z,55.15
2022-11-13T08:07:26.194Z,55.79
2022-11-13T08:10:12.444Z,55.08
2022-11-13T08:13:03.668Z,54.30
2022-11-13T08:15:49.288Z,53.42
2022-11-13T08:18:35.810Z,53.53
2022-11-13T08:21:22.046Z,52.21
2022-11-13T08:24:10.072Z,52.02
2022-11-13T08:26:56.537Z,51.01
2022-11-13T08:29:42.623Z,47.98
2022-11-13T08:32:28.318Z,45.62
2022-11-13T08:35:18.919Z,47.32
2022-11-13T08:38:09.014Z,49.48
2022-11-13T08:41:04.383Z,50.40
2022-11-13T08:43:53.234Z,52.63
2022-11-13T08:46:38.972Z,52.00
2022-11-13T08:49:24.891Z,52.43
2022-11-13T08:52:10.885Z,52.20
2022-11-13T08:54:56.637Z,52.42
2022-11-13T08:57:42.833Z,51.83
2022-11-13T09:00:30.164Z,51.19
2022-11-13T09:03:16.121Z,50.59
2022-11-13T09:06:06.422Z,51.37
2022-11-13T09:08:52.074Z,51.05
2022-11-13T09:11:38.171Z,50.82
2022-11-13T09:14:25.146Z,51.12
2022-11-13T09:17:11.282Z,50.45
2022-11-13T09:20:02.170Z,50.27
2022-11-13T09:22:56.745Z,49.46
2022-11-13T09:25:42.560Z,49.72
2022-11-13T09:28:28.440Z,49.38
2022-11-13T09:31:14.753Z,49.80
2022-11-13T09:34:00.508Z,49.39
2022-11-13T09:36:46.242Z,49.63
2022-11-13T09:39:32.748Z,49.45
2022-11-13T09:42:26.965Z,48.82
2022-11-13T09:45:15.547Z,48.31
2022-11-13T09:48:22.803Z,48.16
2022-11-13T09:51:18.317Z,48.06
2022-11-13T09:54:07.177Z,48.09
2022-11-13T09:57:20.499Z,48.38
2022-11-13T10:00:12.660Z,47.93
2022-11-13T10:04:00.651Z,47.87
2022-11-13T10:06:43.429Z,48.31
2022-11-13T10:10:13.589Z,48.32
2022-11-13T10:13:00.701Z,47.95
2022-11-13T10:15:51.165Z,47.23
2022-11-13T10:18:38.368Z,47.39
2022-11-13T10:21:34.972Z,47.18
2022-11-13T10:24:38.908Z,47.04
2022-11-13T10:27:24.756Z,47.44
2022-11-13T10:30:16.480Z,47.38
2022-11-13T10:33:06.231Z,47.51
2022-11-13T10:36:02.715Z,47.45
2022-11-13T10:38:54.625Z,47.80
2022-11-13T10:41:51.465Z,47.26
2022-11-13T10:44:37.403Z,47.56
2022-11-13T10:47:56.864Z,47.07
2022-11-13T10:50:32.655Z,46.26
2022-11-13T10:53:19.195Z,46.26
2022-11-13T10:56:26.622Z,46.21
2022-11-13T10:59:15.557Z,46.58
2022-11-13T11:02:11.758Z,47.00
2022-11-13T11:05:18.394Z,47.15
2022-11-13T11:08:10.110Z,47.29
2022-11-13T11:11:21.085Z,47.45
2022-11-13T11:14:24.418Z,47.82
2022-11-13T11:17:13.335Z,47.24
2022-11-13T11:20:06.287Z,47.19
2022-11-13T11:23:09.836Z,47.69
2022-11-13T11:26:26.037Z,48.08
2022-11-13T11:29:21.776Z,47.77
2022-11-13T11:32:17.220Z,48.31
2022-11-13T11:35:14.772Z,47.69
2022-11-13T11:38:13.088Z,47.98
2022-11-13T11:41:20.479Z,48.33
2022-11-13T11:44:27.471Z,48.80
2022-11-13T11:47:18.241Z,49.13
2022-11-13T11:50:10.592Z,49.48
2022-11-13T11:53:25.475Z,49.81
2022-11-13T11:56:23.958Z,50.35
2022-11-13T11:59:47.000Z,50.15
2022-11-13T12:02:51.115Z,50.13
2022-11-13T12:06:01.624Z,50.31
2022-11-13T12:09:06.267Z,50.66
2022-11-13T12:12:13.481Z,50.33
2022-11-13T12:15:16.040Z,50.56
2022-11-13T12:18:19.813Z,51.52
2022-11-13T12:21:37.968Z,51.48
2022-11-13T12:24:32.252Z,51.49
2022-11-13T12:27:22.003Z,52.02
2022-11-13T12:30:14.564Z,51.82
2022-11-13T12:33:18.476Z,51.38
2022-11-13T12:36:05.300Z,52.09
2022-11-13T12:39:28.634Z,51.72
2022-11-13T12:42:20.859Z,52.43
2022-11-13T12:45:37.133Z,51.58
2022-11-13T12:48:42.640Z,51.03
2022-11-13T12:51:39.857Z,51.27
2022-11-13T12:54:27.919Z,52.05
2022-11-13T12:57:13.437Z,51.78
2022-11-13T13:00:12.684Z,52.38
2022-11-13T13:03:16.646Z,52.39
2022-11-13T13:06:33.188Z,52.62
2022-11-13T13:09:38.308Z,52.31
2022-11-13T13:12:49.536Z,52.58
2022-11-13T13:15:38.823Z,52.68
2022-11-13T13:18:28.859Z,53.33
2022-11-13T13:21:17.775Z,52.93
2022-11-13T13:24:10.577Z,52.50
2022-11-13T13:26:56.809Z,52.42
2022-11-13T13:29:42.383Z,52.46
2022-11-13T13:32:56.468Z,52.89
2022-11-13T13:36:12.839Z,53.05
2022-11-13T13:39:07.519Z,53.28
2022-11-13T13:42:01.970Z,53.54
2022-11-13T13:44:59.626Z,53.70
2022-11-13T13:47:48.304Z,53.62
2022-11-13T13:50:42.131Z,53.74
2022-11-13T13:53:34.379Z,54.20
2022-11-13T13:56:20.404Z,54.47
2022-11-13T13:59:13.865Z,54.73
2022-11-13T14:02:02.859Z,54.97
2022-11-13T14:04:51.541Z,55.29
2022-11-13T14:07:46.237Z,55.16
2022-11-13T14:10:32.154Z,56.12
2022-11-13T14:13:27.934Z,55.75
2022-11-13T14:16:14.131Z,55.94
2022-11-13T14:19:04.795Z,56.15
2022-11-13T14:21:54.665Z,56.32
2022-11-13T14:24:50.025Z,56.33
2022-11-13T14:27:37.743Z,56.88
2022-11-13T14:30:27.839Z,57.02
2022-11-13T14:33:17.835Z,57.17
2022-11-13T14:36:04.673Z,57.50
2022-11-13T14:38:52.294Z,57.67
2022-11-13T14:41:50.373Z,57.74
2022-11-13T14:44:36.255Z,57.99
2022-11-13T14:47:26.269Z,58.28
2022-11-13T14:50:23.045Z,58.38
2022-11-13T14:53:10.711Z,58.55
2022-11-13T14:56:02.112Z,58.82
2022-11-13T14:58:47.997Z,59.16
2022-11-13T15:01:33.685Z,59.44
2022-11-13T15:04:19.454Z,59.45
2022-11-13T15:07:21.606Z,59.67
2022-11-13T15:10:14.718Z,59.57
2022-11-13T15:13:00.580Z,59.55
2022-11-13T15:15:46.392Z,59.65
2022-11-13T15:18:32.243Z,59.87
2022-11-13T15:21:18.614Z,60.08
2022-11-13T15:24:04.679Z,59.96
2022-11-13T15:26:50.639Z,60.63
2022-11-13T15:29:36.486Z,60.55
2022-11-13T15:32:22.205Z,60.32
2022-11-13T15:35:14.565Z,60.58
2022-11-13T15:38:00.287Z,60.89
2022-11-13T15:40:45.928Z,60.88
2022-11-13T15:43:32.044Z,61.36
2022-11-13T15:46:19.765Z,61.47
2022-11-13T15:49:05.813Z,61.92
2022-11-13T15:51:51.528Z,62.03
2022-11-13T15:54:38.693Z,61.49
2022-11-13T15:57:26.669Z,62.00
2022-11-13T16:00:16.550Z,62.35
2022-11-13T16:03:04.522Z,62.90
2022-11-13T16:05:51.232Z,62.99
2022-11-13T16:08:37.237Z,63.16
2022-11-13T16:11:22.785Z,63.52
2022-11-13T16:14:09.018Z,63.26
2022-11-13T16:16:55.255Z,64.13
2022-11-13T16:19:42.057Z,64.30
2022-11-13T16:22:27.733Z,65.13
2022-11-13T16:25:17.083Z,65.13
2022-11-13T16:28:02.710Z,64.97
2022-11-13T16:30:49.627Z,65.72
2022-11-13T16:33:35.876Z,66.48
2022-11-13T16:36:22.523Z,65.87
2022-11-13T16:39:16.269Z,65.78
2022-11-13T16:42:02.230Z,65.30
2022-11-13T16:44:48.308Z,65.92
2022-11-13T16:47:34.111Z,67.12
2022-11-13T16:50:26.890Z,66.87
2022-11-13T16:53:12.653Z,66.83
2022-11-13T16:55:58.835Z,66.77
2022-11-13T16:58:45.466Z,66.97
2022-11-13T17:01:31.481Z,67.08
2022-11-13T17:04:17.697Z,67.35
2022-11-13T17:07:03.916Z,67.34
2022-11-13T17:10:10.090Z,67.39
2022-11-13T17:12:56.245Z,67.61
2022-11-13T17:15:41.916Z,67.79
2022-11-13T17:18:27.697Z,68.27
2022-11-13T17:21:13.642Z,68.45
2022-11-13T17:24:03.153Z,67.92
2022-11-13T17:26:48.884Z,68.08
2022-11-13T17:29:34.860Z,68.34
2022-11-13T17:32:20.567Z,68.66
2022-11-13T17:35:06.840Z,69.15
2022-11-13T17:37:52.865Z,69.62
2022-11-13T17:40:38.531Z,69.77
2022-11-13T17:43:24.213Z,69.89
2022-11-13T17:46:12.351Z,70.09
2022-11-13T17:48:58.106Z,70.97
2022-11-13T17:51:43.857Z,70.69
2022-11-13T17:54:29.593Z,70.89
2022-11-13T17:57:16.033Z,71.28
2022-11-13T18:00:02.181Z,71.51
2022-11-13T18:02:48.144Z,72.12
2022-11-13T18:05:40.505Z,72.07
2022-11-13T18:08:26.705Z,73.32
2022-11-13T18:11:17.275Z,73.14
2022-11-13T18:14:03.278Z,73.16
2022-11-13T18:16:48.935Z,74.07
2022-11-13T18:19:35.274Z,73.43
2022-11-13T18:22:21.654Z,73.40
2022-11-13T18:25:08.131Z,74.00
2022-11-13T18:27:54.300Z,73.85
2022-11-13T18:30:40.296Z,74.37
2022-11-13T18:33:26.909Z,74.29
2022-11-13T18:36:13.873Z,74.05
2022-11-13T18:39:02.927Z,74.13
2022-11-13T18:41:48.658Z,74.49
2022-11-13T18:44:35.530Z,73.80
2022-11-13T18:47:21.457Z,73.59
2022-11-13T18:50:07.847Z,74.29
2022-11-13T18:52:55.334Z,74.26
2022-11-13T18:55:40.967Z,74.09
2022-11-13T18:58:27.617Z,73.82
2022-11-13T19:01:30.989Z,73.78
2022-11-13T19:04:24.672Z,74.31
2022-11-13T19:07:12.366Z,74.50
2022-11-13T19:09:58.561Z,74.89
2022-11-13T19:12:44.616Z,75.46
2022-11-13T19:15:30.486Z,75.93
2022-11-13T19:18:16.071Z,76.50
2022-11-13T19:21:06.962Z,77.75
2022-11-13T19:23:53.595Z,77.98
2022-11-13T19:26:40.253Z,78.07
2022-11-13T19:29:26.114Z,77.29
2022-11-13T19:32:12.000Z,78.83
2022-11-13T19:34:57.948Z,78.80
2022-11-13T19:37:43.832Z,78.34
2022-11-13T19:40:29.613Z,80.45
2022-11-13T19:43:15.604Z,80.60
2022-11-13T19:46:05.795Z,84.27
2022-11-13T19:48:52.546Z,85.55
2022-11-13T19:51:38.226Z,86.66
2022-11-13T19:54:24.073Z,88.56
2022-11-13T19:57:09.774Z,88.84
2022-11-13T19:59:55.513Z,89.38
2022-11-13T20:02:41.308Z,91.47
2022-11-13T20:05:27.081Z,92.36
2022-11-13T20:08:13.794Z,94.03
2022-11-13T20:11:04.865Z,93.12
2022-11-13T20:13:51.248Z,93.76
2022-11-13T20:16:37.185Z,95.29
2022-11-13T20:19:23.542Z,97.19
2022-11-13T20:22:09.218Z,97.59
2022-11-13T20:24:55.014Z,97.38
2022-11-13T20:27:46.983Z,99.27
2022-11-13T20:30:33.653Z,98.28
2022-11-13T20:33:22.642Z,99.31
2022-11-13T20:36:09.794Z,99.84
2022-11-13T20:38:58.070Z,100.00
2022-11-13T20:41:44.321Z,100.00
2022-11-13T20:44:30.104Z,100.00
2022-11-13T20:47:15.950Z,99.46
2022-11-13T20:50:01.549Z,98.71
2022-11-13T20:52:47.217Z,99.72
2022-11-13T20:55:34.143Z,100.00
2022-11-13T20:58:20.433Z,99.99
2022-11-13T21:01:26.125Z,99.83
2022-11-13T21:04:12.187Z,95.48
2022-11-13T21:06:57.896Z,98.73
2022-11-13T21:09:48.820Z,97.02
2022-11-13T21:12:36.440Z,95.64
2022-11-13T21:15:22.090Z,96.97
2022-11-13T21:18:07.905Z,96.62
2022-11-13T21:20:53.767Z,98.45
2022-11-13T21:23:40.059Z,99.58
2022-11-13T21:26:26.184Z,98.33
2022-11-13T21:29:12.156Z,99.42
2022-11-13T21:31:58.122Z,97.45
2022-11-13T21:34:43.691Z,96.58
2022-11-13T21:37:31.795Z,96.31
2022-11-13T21:40:17.524Z,97.45
2022-11-13T21:43:03.532Z,98.14
2022-11-13T21:45:49.649Z,100.00
2022-11-13T21:48:35.999Z,97.71
2022-11-13T21:51:22.217Z,90.55
2022-11-13T21:54:08.959Z,96.21
2022-11-13T21:56:54.906Z,92.87
2022-11-13T21:59:40.774Z,94.04
2022-11-13T22:02:26.848Z,92.28
2022-11-13T22:05:12.887Z,89.17
2022-11-13T22:07:59.001Z,88.85
2022-11-13T22:10:44.760Z,91.32
2022-11-13T22:13:31.138Z,88.08
2022-11-13T22:16:17.662Z,88.89
2022-11-13T22:19:07.378Z,88.61
2022-11-13T22:21:54.132Z,88.68
2022-11-13T22:24:40.015Z,89.84
2022-11-13T22:27:25.930Z,90.72
2022-11-13T22:30:12.087Z,90.66
2022-11-13T22:32:58.402Z,91.22
2022-11-13T22:35:44.277Z,91.46
2022-11-13T22:38:30.846Z,91.14
2022-11-13T22:41:22.842Z,93.41
2022-11-13T22:44:13.241Z,93.55
2022-11-13T22:46:59.524Z,93.36
2022-11-13T22:49:45.384Z,95.52
2022-11-13T22:52:31.397Z,94.65
2022-11-13T22:55:17.368Z,95.70
2022-11-13T22:58:03.048Z,96.30
2022-11-13T23:00:49.106Z,96.60
2022-11-13T23:03:40.985Z,98.52
2022-11-13T23:06:29.054Z,98.10
2022-11-13T23:09:15.024Z,99.20
2022-11-13T23:12:00.973Z,99.34
2022-11-13T23:14:46.892Z,97.65
2022-11-13T23:17:32.668Z,97.70
2022-11-13T23:20:18.582Z,99.34
2022-11-13T23:23:04.537Z,98.64
2022-11-13T23:25:51.024Z,99.77
2022-11-13T23:28:37.605Z,99.67
2022-11-13T23:31:24.617Z,100.00
2022-11-13T23:34:10.556Z,99.50
2022-11-13T23:36:56.120Z,98.46
2022-11-13T23:39:42.012Z,98.78
2022-11-13T23:42:45.700Z,100.00
2022-11-13T23:45:34.098Z,99.25
2022-11-13T23:48:20.169Z,100.00
2022-11-13T23:51:06.488Z,99.17
2022-11-13T23:53:52.149Z,97.98
2022-11-13T23:56:38.068Z,98.73
2022-11-13T23:59:23.831Z,98.51
